sensor_id;sensor_type;location;lat;lon;timestamp;temperature;humidity
11963;DHT22;62678;52.130;5.584;2023-04-24T00:00:35;9.90;99.90
11963;DHT22;62678;52.130;5.584;2023-04-24T00:03:03;10.00;99.90
11963;DHT22;62678;52.130;5.584;2023-04-24T00:05:33;10.00;99.90
11963;DHT22;62678;52.130;5.584;2023-04-24T00:08:00;10.00;99.90
11963;DHT22;62678;52.130;5.584;2023-04-24T00:10:27;9.90;99.90
11963;DHT22;62678;52.130;5.584;2023-04-24T00:12:55;9.90;99.90
11963;DHT22;62678;52.130;5.584;2023-04-24T00:15:22;9.90;99.90
11963;DHT22;62678;52.130;5.584;2023-04-24T00:17:49;10.00;99.90
11963;DHT22;62678;52.130;5.584;2023-04-24T00:20:17;10.10;99.90
11963;DHT22;62678;52.130;5.584;2023-04-24T00:22:47;10.10;99.90
11963;DHT22;62678;52.130;5.584;2023-04-24T00:25:14;10.00;99.90
11963;DHT22;62678;52.130;5.584;2023-04-24T00:27:41;10.10;99.90
11963;DHT22;62678;52.130;5.584;2023-04-24T00:30:09;10.10;99.90
11963;DHT22;62678;52.130;5.584;2023-04-24T00:32:36;10.10;99.90
11963;DHT22;62678;52.130;5.584;2023-04-24T00:35:04;10.10;99.90
11963;DHT22;62678;52.130;5.584;2023-04-24T00:37:31;10.10;99.90
11963;DHT22;62678;52.130;5.584;2023-04-24T00:40:00;10.10;99.90
11963;DHT22;62678;52.130;5.584;2023-04-24T00:42:28;10.10;99.90
11963;DHT22;62678;52.130;5.584;2023-04-24T00:44:56;10.00;99.90
11963;DHT22;62678;52.130;5.584;2023-04-24T00:47:24;10.00;99.90
11963;DHT22;62678;52.130;5.584;2023-04-24T00:49:52;10.10;99.90
11963;DHT22;62678;52.130;5.584;2023-04-24T00:52:19;10.10;99.90
11963;DHT22;62678;52.130;5.584;2023-04-24T00:54:50;10.10;99.90
11963;DHT22;62678;52.130;5.584;2023-04-24T00:57:18;10.10;99.90
11963;DHT22;62678;52.130;5.584;2023-04-24T00:59:46;10.00;99.90
11963;DHT22;62678;52.130;5.584;2023-04-24T01:02:13;10.10;99.90
11963;DHT22;62678;52.130;5.584;2023-04-24T01:04:41;10.10;99.90
11963;DHT22;62678;52.130;5.584;2023-04-24T01:07:08;10.00;99.90
11963;DHT22;62678;52.130;5.584;2023-04-24T01:09:37;10.00;99.90
11963;DHT22;62678;52.130;5.584;2023-04-24T01:12:06;10.00;99.90
11963;DHT22;62678;52.130;5.584;2023-04-24T01:14:36;10.00;99.90
11963;DHT22;62678;52.130;5.584;2023-04-24T01:17:04;9.90;99.90
11963;DHT22;62678;52.130;5.584;2023-04-24T01:19:31;10.00;99.90
11963;DHT22;62678;52.130;5.584;2023-04-24T01:21:59;10.00;99.90
11963;DHT22;62678;52.130;5.584;2023-04-24T01:24:30;10.10;99.90
11963;DHT22;62678;52.130;5.584;2023-04-24T01:26:57;10.10;99.90
11963;DHT22;62678;52.130;5.584;2023-04-24T01:29:24;10.10;99.90
11963;DHT22;62678;52.130;5.584;2023-04-24T01:31:52;10.10;99.90
11963;DHT22;62678;52.130;5.584;2023-04-24T01:34:19;10.00;99.90
11963;DHT22;62678;52.130;5.584;2023-04-24T01:36:46;10.10;99.90
11963;DHT22;62678;52.130;5.584;2023-04-24T01:39:14;10.10;99.90
11963;DHT22;62678;52.130;5.584;2023-04-24T01:41:43;10.10;99.90
11963;DHT22;62678;52.130;5.584;2023-04-24T01:44:10;10.10;99.90
11963;DHT22;62678;52.130;5.584;2023-04-24T01:46:38;10.10;99.90
11963;DHT22;62678;52.130;5.584;2023-04-24T01:49:05;10.00;99.90
11963;DHT22;62678;52.130;5.584;2023-04-24T01:51:32;10.10;99.90
11963;DHT22;62678;52.130;5.584;2023-04-24T01:54:02;10.10;99.90
11963;DHT22;62678;52.130;5.584;2023-04-24T01:56:33;10.10;99.90
11963;DHT22;62678;52.130;5.584;2023-04-24T01:59:04;10.20;99.90
11963;DHT22;62678;52.130;5.584;2023-04-24T02:01:34;10.10;99.90
11963;DHT22;62678;52.130;5.584;2023-04-24T02:04:02;10.20;99.90
11963;DHT22;62678;52.130;5.584;2023-04-24T02:06:30;10.30;99.90
11963;DHT22;62678;52.130;5.584;2023-04-24T02:08:58;10.30;99.90
11963;DHT22;62678;52.130;5.584;2023-04-24T02:11:25;10.30;99.90
11963;DHT22;62678;52.130;5.584;2023-04-24T02:13:52;10.30;99.90
11963;DHT22;62678;52.130;5.584;2023-04-24T02:16:21;10.20;99.90
11963;DHT22;62678;52.130;5.584;2023-04-24T02:18:48;10.10;99.90
11963;DHT22;62678;52.130;5.584;2023-04-24T02:21:15;10.00;99.90
11963;DHT22;62678;52.130;5.584;2023-04-24T02:23:42;10.00;99.90
11963;DHT22;62678;52.130;5.584;2023-04-24T02:26:10;9.90;99.90
11963;DHT22;62678;52.130;5.584;2023-04-24T02:28:37;10.00;99.90
11963;DHT22;62678;52.130;5.584;2023-04-24T02:31:05;10.10;99.90
11963;DHT22;62678;52.130;5.584;2023-04-24T02:33:34;10.10;99.90
11963;DHT22;62678;52.130;5.584;2023-04-24T02:36:01;10.20;99.90
11963;DHT22;62678;52.130;5.584;2023-04-24T02:38:28;10.20;99.90
11963;DHT22;62678;52.130;5.584;2023-04-24T02:40:55;10.20;99.90
11963;DHT22;62678;52.130;5.584;2023-04-24T02:43:22;10.20;99.90
11963;DHT22;62678;52.130;5.584;2023-04-24T02:45:49;10.20;99.90
11963;DHT22;62678;52.130;5.584;2023-04-24T02:48:16;10.10;99.90
11963;DHT22;62678;52.130;5.584;2023-04-24T02:50:45;10.10;99.90
11963;DHT22;62678;52.130;5.584;2023-04-24T02:53:13;10.20;99.90
11963;DHT22;62678;52.130;5.584;2023-04-24T02:55:40;10.20;99.90
11963;DHT22;62678;52.130;5.584;2023-04-24T02:58:07;10.20;99.90
11963;DHT22;62678;52.130;5.584;2023-04-24T03:00:34;10.20;99.90
11963;DHT22;62678;52.130;5.584;2023-04-24T03:03:01;10.20;99.90
11963;DHT22;62678;52.130;5.584;2023-04-24T03:05:28;10.20;99.90
11963;DHT22;62678;52.130;5.584;2023-04-24T03:07:58;10.20;99.90
11963;DHT22;62678;52.130;5.584;2023-04-24T03:10:25;10.20;99.90
11963;DHT22;62678;52.130;5.584;2023-04-24T03:12:52;10.30;99.90
11963;DHT22;62678;52.130;5.584;2023-04-24T03:15:20;10.20;99.90
11963;DHT22;62678;52.130;5.584;2023-04-24T03:17:47;10.20;99.90
11963;DHT22;62678;52.130;5.584;2023-04-24T03:20:14;10.10;99.90
11963;DHT22;62678;52.130;5.584;2023-04-24T03:22:42;10.10;99.90
11963;DHT22;62678;52.130;5.584;2023-04-24T03:25:10;10.10;99.90
11963;DHT22;62678;52.130;5.584;2023-04-24T03:27:37;10.10;99.90
11963;DHT22;62678;52.130;5.584;2023-04-24T03:30:06;10.10;99.90
11963;DHT22;62678;52.130;5.584;2023-04-24T03:32:33;10.20;99.90
11963;DHT22;62678;52.130;5.584;2023-04-24T03:35:01;10.20;99.90
11963;DHT22;62678;52.130;5.584;2023-04-24T03:37:28;10.20;99.90
11963;DHT22;62678;52.130;5.584;2023-04-24T03:39:56;10.20;99.90
11963;DHT22;62678;52.130;5.584;2023-04-24T03:42:24;10.20;99.90
11963;DHT22;62678;52.130;5.584;2023-04-24T03:44:52;10.20;99.90
11963;DHT22;62678;52.130;5.584;2023-04-24T03:47:19;10.20;99.90
11963;DHT22;62678;52.130;5.584;2023-04-24T03:49:46;10.20;99.90
11963;DHT22;62678;52.130;5.584;2023-04-24T03:52:13;10.20;99.90
11963;DHT22;62678;52.130;5.584;2023-04-24T03:54:40;10.20;99.90
11963;DHT22;62678;52.130;5.584;2023-04-24T03:57:08;10.20;99.90
11963;DHT22;62678;52.130;5.584;2023-04-24T03:59:36;10.20;99.90
11963;DHT22;62678;52.130;5.584;2023-04-24T04:02:03;10.30;99.90
11963;DHT22;62678;52.130;5.584;2023-04-24T04:04:30;10.20;99.90
11963;DHT22;62678;52.130;5.584;2023-04-24T04:06:58;10.30;99.90
11963;DHT22;62678;52.130;5.584;2023-04-24T04:09:26;10.10;99.90
11963;DHT22;62678;52.130;5.584;2023-04-24T04:11:53;10.10;99.90
11963;DHT22;62678;52.130;5.584;2023-04-24T04:14:21;10.10;99.90
11963;DHT22;62678;52.130;5.584;2023-04-24T04:16:49;10.10;99.90
11963;DHT22;62678;52.130;5.584;2023-04-24T04:19:16;10.10;99.90
11963;DHT22;62678;52.130;5.584;2023-04-24T04:21:43;10.00;99.90
11963;DHT22;62678;52.130;5.584;2023-04-24T04:24:11;10.00;99.90
11963;DHT22;62678;52.130;5.584;2023-04-24T04:26:38;10.00;99.90
11963;DHT22;62678;52.130;5.584;2023-04-24T04:29:06;9.90;99.90
11963;DHT22;62678;52.130;5.584;2023-04-24T04:31:33;10.00;99.90
11963;DHT22;62678;52.130;5.584;2023-04-24T04:34:01;9.90;99.90
11963;DHT22;62678;52.130;5.584;2023-04-24T04:36:29;10.00;99.90
11963;DHT22;62678;52.130;5.584;2023-04-24T04:38:56;10.00;99.90
11963;DHT22;62678;52.130;5.584;2023-04-24T04:41:25;10.00;99.90
11963;DHT22;62678;52.130;5.584;2023-04-24T04:43:52;10.00;99.90
11963;DHT22;62678;52.130;5.584;2023-04-24T04:46:19;10.00;99.90
11963;DHT22;62678;52.130;5.584;2023-04-24T04:48:47;10.00;99.90
11963;DHT22;62678;52.130;5.584;2023-04-24T04:51:15;9.90;99.90
11963;DHT22;62678;52.130;5.584;2023-04-24T04:53:42;9.90;99.90
11963;DHT22;62678;52.130;5.584;2023-04-24T04:56:10;9.90;99.90
11963;DHT22;62678;52.130;5.584;2023-04-24T04:58:37;10.00;99.90
11963;DHT22;62678;52.130;5.584;2023-04-24T05:01:04;10.00;99.90
11963;DHT22;62678;52.130;5.584;2023-04-24T05:03:32;9.90;99.90
11963;DHT22;62678;52.130;5.584;2023-04-24T05:05:59;9.90;99.90
11963;DHT22;62678;52.130;5.584;2023-04-24T05:08:28;10.00;99.90
11963;DHT22;62678;52.130;5.584;2023-04-24T05:10:55;10.00;99.90
11963;DHT22;62678;52.130;5.584;2023-04-24T05:13:22;10.00;99.90
11963;DHT22;62678;52.130;5.584;2023-04-24T05:15:49;10.00;99.90
11963;DHT22;62678;52.130;5.584;2023-04-24T05:18:16;10.00;99.90
11963;DHT22;62678;52.130;5.584;2023-04-24T05:20:43;10.10;99.90
11963;DHT22;62678;52.130;5.584;2023-04-24T05:23:10;10.20;99.90
11963;DHT22;62678;52.130;5.584;2023-04-24T05:25:39;10.20;99.90
11963;DHT22;62678;52.130;5.584;2023-04-24T05:28:07;10.20;99.90
11963;DHT22;62678;52.130;5.584;2023-04-24T05:30:34;10.20;99.90
11963;DHT22;62678;52.130;5.584;2023-04-24T05:33:02;10.20;99.90
11963;DHT22;62678;52.130;5.584;2023-04-24T05:35:29;10.20;99.90
11963;DHT22;62678;52.130;5.584;2023-04-24T05:37:56;10.20;99.90
11963;DHT22;62678;52.130;5.584;2023-04-24T05:40:23;10.40;99.90
11963;DHT22;62678;52.130;5.584;2023-04-24T05:42:52;10.40;99.90
11963;DHT22;62678;52.130;5.584;2023-04-24T05:45:19;10.40;99.90
11963;DHT22;62678;52.130;5.584;2023-04-24T05:47:46;10.50;99.90
11963;DHT22;62678;52.130;5.584;2023-04-24T05:50:13;10.50;99.90
11963;DHT22;62678;52.130;5.584;2023-04-24T05:52:41;10.50;99.90
11963;DHT22;62678;52.130;5.584;2023-04-24T05:55:08;10.50;99.90
11963;DHT22;62678;52.130;5.584;2023-04-24T05:57:35;10.50;99.90
11963;DHT22;62678;52.130;5.584;2023-04-24T06:00:05;10.50;99.90
11963;DHT22;62678;52.130;5.584;2023-04-24T06:02:33;10.50;99.90
11963;DHT22;62678;52.130;5.584;2023-04-24T06:05:01;10.40;99.90
11963;DHT22;62678;52.130;5.584;2023-04-24T06:07:30;10.20;99.90
11963;DHT22;62678;52.130;5.584;2023-04-24T06:09:57;10.20;99.90
11963;DHT22;62678;52.130;5.584;2023-04-24T06:12:25;10.20;99.90
11963;DHT22;62678;52.130;5.584;2023-04-24T06:14:53;10.10;99.90
11963;DHT22;62678;52.130;5.584;2023-04-24T06:17:22;10.10;99.90
11963;DHT22;62678;52.130;5.584;2023-04-24T06:19:49;10.10;99.90
11963;DHT22;62678;52.130;5.584;2023-04-24T06:22:16;10.20;99.90
11963;DHT22;62678;52.130;5.584;2023-04-24T06:24:43;10.10;99.90
11963;DHT22;62678;52.130;5.584;2023-04-24T06:27:10;10.00;99.90
11963;DHT22;62678;52.130;5.584;2023-04-24T06:29:37;10.00;99.90
11963;DHT22;62678;52.130;5.584;2023-04-24T06:32:05;10.10;99.90
11963;DHT22;62678;52.130;5.584;2023-04-24T06:34:33;10.00;99.90
11963;DHT22;62678;52.130;5.584;2023-04-24T06:37:02;9.90;99.90
11963;DHT22;62678;52.130;5.584;2023-04-24T06:39:29;9.80;99.90
11963;DHT22;62678;52.130;5.584;2023-04-24T06:41:57;9.80;99.90
11963;DHT22;62678;52.130;5.584;2023-04-24T06:44:24;9.70;99.90
11963;DHT22;62678;52.130;5.584;2023-04-24T06:46:51;9.70;99.90
11963;DHT22;62678;52.130;5.584;2023-04-24T06:49:18;9.70;99.90
11963;DHT22;62678;52.130;5.584;2023-04-24T06:51:47;9.60;99.90
11963;DHT22;62678;52.130;5.584;2023-04-24T06:54:14;9.60;99.90
11963;DHT22;62678;52.130;5.584;2023-04-24T06:56:44;9.70;99.90
11963;DHT22;62678;52.130;5.584;2023-04-24T06:59:13;9.60;99.90
11963;DHT22;62678;52.130;5.584;2023-04-24T07:01:40;9.50;99.90
11963;DHT22;62678;52.130;5.584;2023-04-24T07:04:08;9.60;99.90
11963;DHT22;62678;52.130;5.584;2023-04-24T07:06:35;9.60;99.90
11963;DHT22;62678;52.130;5.584;2023-04-24T07:09:04;9.50;99.90
11963;DHT22;62678;52.130;5.584;2023-04-24T07:11:31;9.50;99.90
11963;DHT22;62678;52.130;5.584;2023-04-24T07:13:59;9.60;99.90
11963;DHT22;62678;52.130;5.584;2023-04-24T07:16:26;9.50;99.90
11963;DHT22;62678;52.130;5.584;2023-04-24T07:18:54;9.60;99.90
11963;DHT22;62678;52.130;5.584;2023-04-24T07:21:21;9.60;99.90
11963;DHT22;62678;52.130;5.584;2023-04-24T07:23:48;9.50;99.90
11963;DHT22;62678;52.130;5.584;2023-04-24T07:26:20;9.60;99.90
11963;DHT22;62678;52.130;5.584;2023-04-24T07:28:47;9.50;99.90
11963;DHT22;62678;52.130;5.584;2023-04-24T07:31:15;9.60;99.90
11963;DHT22;62678;52.130;5.584;2023-04-24T07:33:42;9.50;99.90
11963;DHT22;62678;52.130;5.584;2023-04-24T07:36:09;9.40;99.90
11963;DHT22;62678;52.130;5.584;2023-04-24T07:38:41;9.40;99.90
11963;DHT22;62678;52.130;5.584;2023-04-24T07:41:08;9.40;99.90
11963;DHT22;62678;52.130;5.584;2023-04-24T07:43:36;9.40;99.90
11963;DHT22;62678;52.130;5.584;2023-04-24T07:46:04;9.30;99.90
11963;DHT22;62678;52.130;5.584;2023-04-24T07:48:31;9.40;99.90
11963;DHT22;62678;52.130;5.584;2023-04-24T07:50:58;9.20;99.90
11963;DHT22;62678;52.130;5.584;2023-04-24T07:53:25;9.20;99.90
11963;DHT22;62678;52.130;5.584;2023-04-24T07:55:54;9.20;99.90
11963;DHT22;62678;52.130;5.584;2023-04-24T07:58:21;9.20;99.90
11963;DHT22;62678;52.130;5.584;2023-04-24T08:00:50;9.10;99.90
11963;DHT22;62678;52.130;5.584;2023-04-24T08:03:17;9.10;99.90
11963;DHT22;62678;52.130;5.584;2023-04-24T08:05:47;9.20;99.90
11963;DHT22;62678;52.130;5.584;2023-04-24T08:08:16;9.20;99.90
11963;DHT22;62678;52.130;5.584;2023-04-24T08:10:44;9.30;99.90
11963;DHT22;62678;52.130;5.584;2023-04-24T08:13:12;9.20;99.90
11963;DHT22;62678;52.130;5.584;2023-04-24T08:15:39;9.20;99.90
11963;DHT22;62678;52.130;5.584;2023-04-24T08:18:08;9.30;99.90
11963;DHT22;62678;52.130;5.584;2023-04-24T08:20:37;9.30;99.90
11963;DHT22;62678;52.130;5.584;2023-04-24T08:23:04;9.30;99.90
11963;DHT22;62678;52.130;5.584;2023-04-24T08:25:32;9.30;99.90
11963;DHT22;62678;52.130;5.584;2023-04-24T08:28:02;9.30;99.90
11963;DHT22;62678;52.130;5.584;2023-04-24T08:30:29;9.30;99.90
11963;DHT22;62678;52.130;5.584;2023-04-24T08:32:56;9.20;99.90
11963;DHT22;62678;52.130;5.584;2023-04-24T08:35:25;9.10;99.90
11963;DHT22;62678;52.130;5.584;2023-04-24T08:37:52;9.20;99.90
11963;DHT22;62678;52.130;5.584;2023-04-24T08:40:24;9.10;99.90
11963;DHT22;62678;52.130;5.584;2023-04-24T08:42:54;9.10;99.90
11963;DHT22;62678;52.130;5.584;2023-04-24T08:45:23;9.10;99.90
11963;DHT22;62678;52.130;5.584;2023-04-24T08:47:52;9.10;99.90
11963;DHT22;62678;52.130;5.584;2023-04-24T08:50:20;9.00;99.90
11963;DHT22;62678;52.130;5.584;2023-04-24T08:52:49;8.90;99.90
11963;DHT22;62678;52.130;5.584;2023-04-24T08:55:19;8.90;99.90
11963;DHT22;62678;52.130;5.584;2023-04-24T08:57:50;8.80;99.90
11963;DHT22;62678;52.130;5.584;2023-04-24T09:00:18;8.80;99.90
11963;DHT22;62678;52.130;5.584;2023-04-24T09:02:48;8.90;99.90
11963;DHT22;62678;52.130;5.584;2023-04-24T09:05:17;8.90;99.90
11963;DHT22;62678;52.130;5.584;2023-04-24T09:07:45;8.90;99.90
11963;DHT22;62678;52.130;5.584;2023-04-24T09:10:16;9.00;99.90
11963;DHT22;62678;52.130;5.584;2023-04-24T09:12:44;9.00;99.90
11963;DHT22;62678;52.130;5.584;2023-04-24T09:15:12;9.00;99.90
11963;DHT22;62678;52.130;5.584;2023-04-24T09:17:39;8.90;99.90
11963;DHT22;62678;52.130;5.584;2023-04-24T09:20:07;9.10;99.90
11963;DHT22;62678;52.130;5.584;2023-04-24T09:22:36;9.10;99.90
11963;DHT22;62678;52.130;5.584;2023-04-24T09:25:05;9.10;99.90
11963;DHT22;62678;52.130;5.584;2023-04-24T09:27:34;9.00;99.90
11963;DHT22;62678;52.130;5.584;2023-04-24T09:30:02;9.00;99.90
11963;DHT22;62678;52.130;5.584;2023-04-24T09:32:30;9.10;99.90
11963;DHT22;62678;52.130;5.584;2023-04-24T09:35:08;9.10;99.90
11963;DHT22;62678;52.130;5.584;2023-04-24T09:37:37;9.20;99.90
11963;DHT22;62678;52.130;5.584;2023-04-24T09:40:15;9.30;99.90
11963;DHT22;62678;52.130;5.584;2023-04-24T09:42:52;9.30;99.90
11963;DHT22;62678;52.130;5.584;2023-04-24T09:45:20;9.30;99.90
11963;DHT22;62678;52.130;5.584;2023-04-24T09:47:51;9.30;99.90
11963;DHT22;62678;52.130;5.584;2023-04-24T09:50:19;9.40;99.90
11963;DHT22;62678;52.130;5.584;2023-04-24T09:52:56;9.50;99.90
11963;DHT22;62678;52.130;5.584;2023-04-24T09:55:24;9.60;99.90
11963;DHT22;62678;52.130;5.584;2023-04-24T09:57:55;9.70;99.90
11963;DHT22;62678;52.130;5.584;2023-04-24T10:00:24;9.70;99.90
11963;DHT22;62678;52.130;5.584;2023-04-24T10:02:55;9.80;99.90
11963;DHT22;62678;52.130;5.584;2023-04-24T10:05:30;9.70;99.90
11963;DHT22;62678;52.130;5.584;2023-04-24T10:08:00;9.70;99.90
11963;DHT22;62678;52.130;5.584;2023-04-24T10:10:29;9.70;99.90
11963;DHT22;62678;52.130;5.584;2023-04-24T10:12:58;9.80;99.90
11963;DHT22;62678;52.130;5.584;2023-04-24T10:15:27;10.00;99.90
11963;DHT22;62678;52.130;5.584;2023-04-24T10:17:54;9.90;99.90
11963;DHT22;62678;52.130;5.584;2023-04-24T10:20:23;9.80;99.90
11963;DHT22;62678;52.130;5.584;2023-04-24T10:22:53;9.80;99.90
11963;DHT22;62678;52.130;5.584;2023-04-24T10:25:23;10.10;99.90
11963;DHT22;62678;52.130;5.584;2023-04-24T10:27:54;10.00;99.90
11963;DHT22;62678;52.130;5.584;2023-04-24T10:30:28;9.90;99.90
11963;DHT22;62678;52.130;5.584;2023-04-24T10:32:56;9.80;99.90
11963;DHT22;62678;52.130;5.584;2023-04-24T10:35:25;10.00;99.90
11963;DHT22;62678;52.130;5.584;2023-04-24T10:37:56;10.10;99.90
11963;DHT22;62678;52.130;5.584;2023-04-24T10:40:26;10.20;99.90
11963;DHT22;62678;52.130;5.584;2023-04-24T10:42:57;10.30;99.90
11963;DHT22;62678;52.130;5.584;2023-04-24T10:45:25;10.20;99.90
11963;DHT22;62678;52.130;5.584;2023-04-24T10:48:02;10.30;99.90
11963;DHT22;62678;52.130;5.584;2023-04-24T10:50:43;10.60;99.90
11963;DHT22;62678;52.130;5.584;2023-04-24T10:53:15;10.50;99.90
11963;DHT22;62678;52.130;5.584;2023-04-24T10:55:47;10.70;99.90
11963;DHT22;62678;52.130;5.584;2023-04-24T10:58:16;10.70;99.90
11963;DHT22;62678;52.130;5.584;2023-04-24T11:00:56;10.70;99.90
11963;DHT22;62678;52.130;5.584;2023-04-24T11:03:25;10.70;99.90
11963;DHT22;62678;52.130;5.584;2023-04-24T11:05:56;10.50;99.90
11963;DHT22;62678;52.130;5.584;2023-04-24T11:08:28;10.20;99.90
11963;DHT22;62678;52.130;5.584;2023-04-24T11:11:00;9.90;99.90
11963;DHT22;62678;52.130;5.584;2023-04-24T11:16:34;10.00;99.90
11963;DHT22;62678;52.130;5.584;2023-04-24T11:19:05;9.70;99.90
11963;DHT22;62678;52.130;5.584;2023-04-24T11:21:40;9.40;99.90
11963;DHT22;62678;52.130;5.584;2023-04-24T11:24:25;9.40;99.90
11963;DHT22;62678;52.130;5.584;2023-04-24T11:26:53;9.20;99.90
11963;DHT22;62678;52.130;5.584;2023-04-24T11:29:21;9.30;99.90
11963;DHT22;62678;52.130;5.584;2023-04-24T11:31:49;9.10;99.90
11963;DHT22;62678;52.130;5.584;2023-04-24T11:34:18;9.30;99.90
11963;DHT22;62678;52.130;5.584;2023-04-24T11:36:45;9.20;99.90
11963;DHT22;62678;52.130;5.584;2023-04-24T11:39:13;9.30;99.90
11963;DHT22;62678;52.130;5.584;2023-04-24T11:41:41;9.30;99.90
11963;DHT22;62678;52.130;5.584;2023-04-24T11:44:09;9.40;99.90
11963;DHT22;62678;52.130;5.584;2023-04-24T11:46:37;9.60;99.90
11963;DHT22;62678;52.130;5.584;2023-04-24T11:49:07;9.80;99.90
11963;DHT22;62678;52.130;5.584;2023-04-24T11:51:34;10.00;99.90
11963;DHT22;62678;52.130;5.584;2023-04-24T11:54:01;10.40;99.90
11963;DHT22;62678;52.130;5.584;2023-04-24T11:56:29;10.60;99.90
11963;DHT22;62678;52.130;5.584;2023-04-24T11:58:56;10.60;99.90
11963;DHT22;62678;52.130;5.584;2023-04-24T12:01:23;10.50;99.90
11963;DHT22;62678;52.130;5.584;2023-04-24T12:03:50;10.30;99.90
11963;DHT22;62678;52.130;5.584;2023-04-24T12:06:27;10.50;99.90
11963;DHT22;62678;52.130;5.584;2023-04-24T12:08:54;10.80;99.90
11963;DHT22;62678;52.130;5.584;2023-04-24T12:11:23;11.20;99.90
11963;DHT22;62678;52.130;5.584;2023-04-24T12:13:52;11.30;99.90
11963;DHT22;62678;52.130;5.584;2023-04-24T12:16:19;11.60;99.90
11963;DHT22;62678;52.130;5.584;2023-04-24T12:18:46;11.50;99.90
11963;DHT22;62678;52.130;5.584;2023-04-24T12:21:20;11.10;99.90
11963;DHT22;62678;52.130;5.584;2023-04-24T12:23:49;11.10;99.90
11963;DHT22;62678;52.130;5.584;2023-04-24T12:26:18;11.10;99.90
11963;DHT22;62678;52.130;5.584;2023-04-24T12:28:49;10.90;99.90
11963;DHT22;62678;52.130;5.584;2023-04-24T12:31:16;10.60;99.90
11963;DHT22;62678;52.130;5.584;2023-04-24T12:33:43;10.60;99.90
11963;DHT22;62678;52.130;5.584;2023-04-24T12:36:11;10.70;99.90
11963;DHT22;62678;52.130;5.584;2023-04-24T12:38:44;10.50;99.90
11963;DHT22;62678;52.130;5.584;2023-04-24T12:41:14;10.40;99.90
11963;DHT22;62678;52.130;5.584;2023-04-24T12:43:52;10.50;99.90
11963;DHT22;62678;52.130;5.584;2023-04-24T12:46:19;10.30;99.90
11963;DHT22;62678;52.130;5.584;2023-04-24T12:48:46;10.40;99.90
11963;DHT22;62678;52.130;5.584;2023-04-24T12:51:16;10.40;99.90
11963;DHT22;62678;52.130;5.584;2023-04-24T12:53:43;10.40;99.90
11963;DHT22;62678;52.130;5.584;2023-04-24T12:56:10;10.40;99.90
11963;DHT22;62678;52.130;5.584;2023-04-24T12:58:39;10.50;99.90
11963;DHT22;62678;52.130;5.584;2023-04-24T13:01:06;10.70;99.90
11963;DHT22;62678;52.130;5.584;2023-04-24T13:03:33;10.70;99.90
11963;DHT22;62678;52.130;5.584;2023-04-24T13:06:00;10.80;99.90
11963;DHT22;62678;52.130;5.584;2023-04-24T13:08:27;10.70;99.90
11963;DHT22;62678;52.130;5.584;2023-04-24T13:10:55;10.60;99.90
11963;DHT22;62678;52.130;5.584;2023-04-24T13:13:22;10.40;99.90
11963;DHT22;62678;52.130;5.584;2023-04-24T13:15:51;10.00;99.90
11963;DHT22;62678;52.130;5.584;2023-04-24T13:18:18;9.50;99.90
11963;DHT22;62678;52.130;5.584;2023-04-24T13:20:45;9.10;99.90
11963;DHT22;62678;52.130;5.584;2023-04-24T13:23:13;9.00;99.90
11963;DHT22;62678;52.130;5.584;2023-04-24T13:25:41;8.90;99.90
11963;DHT22;62678;52.130;5.584;2023-04-24T13:28:08;9.20;99.90
11963;DHT22;62678;52.130;5.584;2023-04-24T13:30:36;9.50;99.90
11963;DHT22;62678;52.130;5.584;2023-04-24T13:33:05;9.60;99.90
11963;DHT22;62678;52.130;5.584;2023-04-24T13:35:32;9.80;99.90
11963;DHT22;62678;52.130;5.584;2023-04-24T13:37:59;10.00;99.90
11963;DHT22;62678;52.130;5.584;2023-04-24T13:40:31;10.20;99.90
11963;DHT22;62678;52.130;5.584;2023-04-24T13:42:58;10.20;99.90
11963;DHT22;62678;52.130;5.584;2023-04-24T13:45:25;10.40;99.90
11963;DHT22;62678;52.130;5.584;2023-04-24T13:47:52;10.80;99.90
11963;DHT22;62678;52.130;5.584;2023-04-24T13:50:21;11.10;99.90
11963;DHT22;62678;52.130;5.584;2023-04-24T13:52:49;10.90;99.90
11963;DHT22;62678;52.130;5.584;2023-04-24T13:55:16;10.90;99.90
11963;DHT22;62678;52.130;5.584;2023-04-24T13:57:43;11.00;99.90
11963;DHT22;62678;52.130;5.584;2023-04-24T14:00:11;10.90;99.90
11963;DHT22;62678;52.130;5.584;2023-04-24T14:02:38;10.90;99.90
11963;DHT22;62678;52.130;5.584;2023-04-24T14:05:05;10.80;99.90
11963;DHT22;62678;52.130;5.584;2023-04-24T14:07:34;10.60;99.90
11963;DHT22;62678;52.130;5.584;2023-04-24T14:10:01;10.50;99.90
11963;DHT22;62678;52.130;5.584;2023-04-24T14:12:28;10.50;99.90
11963;DHT22;62678;52.130;5.584;2023-04-24T14:14:55;10.70;99.90
11963;DHT22;62678;52.130;5.584;2023-04-24T14:17:21;10.80;99.90
11963;DHT22;62678;52.130;5.584;2023-04-24T14:19:48;10.90;99.90
11963;DHT22;62678;52.130;5.584;2023-04-24T14:22:15;10.90;99.90
11963;DHT22;62678;52.130;5.584;2023-04-24T14:24:44;11.00;99.90
11963;DHT22;62678;52.130;5.584;2023-04-24T14:27:10;10.80;99.90
11963;DHT22;62678;52.130;5.584;2023-04-24T14:29:37;10.90;99.90
11963;DHT22;62678;52.130;5.584;2023-04-24T14:32:04;10.90;99.90
11963;DHT22;62678;52.130;5.584;2023-04-24T14:34:31;11.10;99.90
11963;DHT22;62678;52.130;5.584;2023-04-24T14:36:58;11.10;99.90
11963;DHT22;62678;52.130;5.584;2023-04-24T14:39:25;11.10;99.90
11963;DHT22;62678;52.130;5.584;2023-04-24T14:41:53;11.00;99.90
11963;DHT22;62678;52.130;5.584;2023-04-24T14:44:24;10.70;99.90
11963;DHT22;62678;52.130;5.584;2023-04-24T14:46:51;10.60;99.90
11963;DHT22;62678;52.130;5.584;2023-04-24T14:49:18;10.70;99.90
11963;DHT22;62678;52.130;5.584;2023-04-24T14:51:45;10.80;99.90
11963;DHT22;62678;52.130;5.584;2023-04-24T14:54:13;10.90;99.90
11963;DHT22;62678;52.130;5.584;2023-04-24T14:56:40;10.80;99.90
11963;DHT22;62678;52.130;5.584;2023-04-24T14:59:10;10.60;99.90
11963;DHT22;62678;52.130;5.584;2023-04-24T15:01:37;10.50;99.90
11963;DHT22;62678;52.130;5.584;2023-04-24T15:04:07;10.40;99.90
11963;DHT22;62678;52.130;5.584;2023-04-24T15:06:34;10.40;99.90
11963;DHT22;62678;52.130;5.584;2023-04-24T15:09:01;10.40;99.90
11963;DHT22;62678;52.130;5.584;2023-04-24T15:11:28;10.40;99.90
11963;DHT22;62678;52.130;5.584;2023-04-24T15:13:55;10.50;99.90
11963;DHT22;62678;52.130;5.584;2023-04-24T15:16:24;10.30;99.90
11963;DHT22;62678;52.130;5.584;2023-04-24T15:18:51;10.30;99.90
11963;DHT22;62678;52.130;5.584;2023-04-24T15:21:17;10.10;99.90
11963;DHT22;62678;52.130;5.584;2023-04-24T15:23:44;10.10;99.90
11963;DHT22;62678;52.130;5.584;2023-04-24T15:26:11;10.20;99.90
11963;DHT22;62678;52.130;5.584;2023-04-24T15:28:38;9.90;99.90
11963;DHT22;62678;52.130;5.584;2023-04-24T15:31:05;9.50;99.90
11963;DHT22;62678;52.130;5.584;2023-04-24T15:33:33;9.20;99.90
11963;DHT22;62678;52.130;5.584;2023-04-24T15:36:00;9.40;99.90
11963;DHT22;62678;52.130;5.584;2023-04-24T15:38:27;9.60;99.90
11963;DHT22;62678;52.130;5.584;2023-04-24T15:40:54;9.50;99.90
11963;DHT22;62678;52.130;5.584;2023-04-24T15:43:21;9.70;99.90
11963;DHT22;62678;52.130;5.584;2023-04-24T15:45:49;9.80;99.90